sensor_id;sensor_type;location;lat;lon;timestamp;temperature;humidity
20479;DHT22;10398;52.490;13.434;2023-05-09T00:02:01;11.50;99.30
20479;DHT22;10398;52.490;13.434;2023-05-09T00:04:27;11.40;99.30
20479;DHT22;10398;52.490;13.434;2023-05-09T00:06:53;11.40;99.40
20479;DHT22;10398;52.490;13.434;2023-05-09T00:09:19;11.40;99.90
20479;DHT22;10398;52.490;13.434;2023-05-09T00:11:44;11.40;99.70
20479;DHT22;10398;52.490;13.434;2023-05-09T00:14:10;11.30;99.70
20479;DHT22;10398;52.490;13.434;2023-05-09T00:16:38;11.30;99.80
20479;DHT22;10398;52.490;13.434;2023-05-09T00:19:04;11.30;99.90
20479;DHT22;10398;52.490;13.434;2023-05-09T00:21:31;11.30;99.90
20479;DHT22;10398;52.490;13.434;2023-05-09T00:23:56;11.20;99.90
20479;DHT22;10398;52.490;13.434;2023-05-09T00:26:23;11.20;99.90
20479;DHT22;10398;52.490;13.434;2023-05-09T00:28:48;11.10;99.90
20479;DHT22;10398;52.490;13.434;2023-05-09T00:31:14;11.00;99.90
20479;DHT22;10398;52.490;13.434;2023-05-09T00:33:40;11.00;99.90
20479;DHT22;10398;52.490;13.434;2023-05-09T00:36:06;10.90;99.90
20479;DHT22;10398;52.490;13.434;2023-05-09T00:38:31;10.90;99.90
20479;DHT22;10398;52.490;13.434;2023-05-09T00:40:57;10.90;99.90
20479;DHT22;10398;52.490;13.434;2023-05-09T00:43:23;10.80;99.90
20479;DHT22;10398;52.490;13.434;2023-05-09T00:45:48;10.90;99.90
20479;DHT22;10398;52.490;13.434;2023-05-09T00:48:15;10.90;99.90
20479;DHT22;10398;52.490;13.434;2023-05-09T00:50:41;10.80;99.90
20479;DHT22;10398;52.490;13.434;2023-05-09T00:53:08;10.90;99.90
20479;DHT22;10398;52.490;13.434;2023-05-09T00:55:34;10.80;99.90
20479;DHT22;10398;52.490;13.434;2023-05-09T00:58:01;10.80;99.90
20479;DHT22;10398;52.490;13.434;2023-05-09T01:00:27;10.90;99.90
20479;DHT22;10398;52.490;13.434;2023-05-09T01:02:54;10.80;99.90
20479;DHT22;10398;52.490;13.434;2023-05-09T01:05:21;10.80;99.90
20479;DHT22;10398;52.490;13.434;2023-05-09T01:08:06;10.80;99.90
20479;DHT22;10398;52.490;13.434;2023-05-09T01:11:21;10.70;99.90
20479;DHT22;10398;52.490;13.434;2023-05-09T01:16:54;10.70;99.90
20479;DHT22;10398;52.490;13.434;2023-05-09T01:21:51;10.70;99.90
20479;DHT22;10398;52.490;13.434;2023-05-09T01:24:32;10.60;99.90
20479;DHT22;10398;52.490;13.434;2023-05-09T01:29:57;10.60;99.90
20479;DHT22;10398;52.490;13.434;2023-05-09T01:32:28;10.60;99.90
20479;DHT22;10398;52.490;13.434;2023-05-09T01:35:01;10.60;99.90
20479;DHT22;10398;52.490;13.434;2023-05-09T01:37:32;10.60;99.90
20479;DHT22;10398;52.490;13.434;2023-05-09T01:40:03;10.50;99.90
20479;DHT22;10398;52.490;13.434;2023-05-09T01:42:48;10.50;99.90
20479;DHT22;10398;52.490;13.434;2023-05-09T01:45:14;10.50;99.90
20479;DHT22;10398;52.490;13.434;2023-05-09T01:47:41;10.50;99.90
20479;DHT22;10398;52.490;13.434;2023-05-09T01:50:10;10.50;99.90
20479;DHT22;10398;52.490;13.434;2023-05-09T01:52:37;10.50;99.90
20479;DHT22;10398;52.490;13.434;2023-05-09T01:55:04;10.50;99.90
20479;DHT22;10398;52.490;13.434;2023-05-09T01:57:30;10.50;99.80
20479;DHT22;10398;52.490;13.434;2023-05-09T01:59:57;10.50;99.70
20479;DHT22;10398;52.490;13.434;2023-05-09T02:02:25;10.50;99.80
20479;DHT22;10398;52.490;13.434;2023-05-09T02:04:53;10.50;99.60
20479;DHT22;10398;52.490;13.434;2023-05-09T02:07:21;10.50;99.60
20479;DHT22;10398;52.490;13.434;2023-05-09T02:09:48;10.50;99.60
20479;DHT22;10398;52.490;13.434;2023-05-09T02:12:14;10.40;99.20
20479;DHT22;10398;52.490;13.434;2023-05-09T02:14:40;10.30;99.10
20479;DHT22;10398;52.490;13.434;2023-05-09T02:17:06;10.30;99.20
20479;DHT22;10398;52.490;13.434;2023-05-09T02:19:34;10.30;99.10
20479;DHT22;10398;52.490;13.434;2023-05-09T02:22:01;10.40;99.10
20479;DHT22;10398;52.490;13.434;2023-05-09T02:24:27;10.30;99.00
20479;DHT22;10398;52.490;13.434;2023-05-09T02:26:53;10.30;99.00
20479;DHT22;10398;52.490;13.434;2023-05-09T02:29:21;10.30;98.90
20479;DHT22;10398;52.490;13.434;2023-05-09T02:31:51;10.20;98.80
20479;DHT22;10398;52.490;13.434;2023-05-09T02:34:17;10.30;98.80
20479;DHT22;10398;52.490;13.434;2023-05-09T02:36:44;10.30;98.80
20479;DHT22;10398;52.490;13.434;2023-05-09T02:39:10;10.30;98.80
20479;DHT22;10398;52.490;13.434;2023-05-09T02:41:36;10.30;99.00
20479;DHT22;10398;52.490;13.434;2023-05-09T02:44:01;10.30;98.80
20479;DHT22;10398;52.490;13.434;2023-05-09T02:46:27;10.20;98.60
20479;DHT22;10398;52.490;13.434;2023-05-09T02:48:54;10.20;98.60
20479;DHT22;10398;52.490;13.434;2023-05-09T02:51:19;10.30;98.80
20479;DHT22;10398;52.490;13.434;2023-05-09T02:53:45;10.30;98.80
20479;DHT22;10398;52.490;13.434;2023-05-09T02:56:11;10.30;98.80
20479;DHT22;10398;52.490;13.434;2023-05-09T02:58:37;10.20;98.70
20479;DHT22;10398;52.490;13.434;2023-05-09T03:01:03;10.30;98.80
20479;DHT22;10398;52.490;13.434;2023-05-09T03:03:29;10.20;98.80
20479;DHT22;10398;52.490;13.434;2023-05-09T03:05:55;10.20;98.80
20479;DHT22;10398;52.490;13.434;2023-05-09T03:08:20;10.20;98.90
20479;DHT22;10398;52.490;13.434;2023-05-09T03:10:46;10.20;99.00
20479;DHT22;10398;52.490;13.434;2023-05-09T03:13:12;10.20;99.00
20479;DHT22;10398;52.490;13.434;2023-05-09T03:15:37;10.20;99.10
20479;DHT22;10398;52.490;13.434;2023-05-09T03:18:03;10.20;99.10
20479;DHT22;10398;52.490;13.434;2023-05-09T03:20:29;10.20;99.20
20479;DHT22;10398;52.490;13.434;2023-05-09T03:22:54;10.30;99.30
20479;DHT22;10398;52.490;13.434;2023-05-09T03:25:20;10.30;99.20
20479;DHT22;10398;52.490;13.434;2023-05-09T03:27:46;10.30;99.30
20479;DHT22;10398;52.490;13.434;2023-05-09T03:30:12;10.30;99.30
20479;DHT22;10398;52.490;13.434;2023-05-09T03:32:38;10.20;99.30
20479;DHT22;10398;52.490;13.434;2023-05-09T03:35:04;10.20;99.40
20479;DHT22;10398;52.490;13.434;2023-05-09T03:37:30;10.20;99.50
20479;DHT22;10398;52.490;13.434;2023-05-09T03:39:55;10.10;99.50
20479;DHT22;10398;52.490;13.434;2023-05-09T03:42:21;10.10;99.70
20479;DHT22;10398;52.490;13.434;2023-05-09T03:44:47;10.20;99.50
20479;DHT22;10398;52.490;13.434;2023-05-09T03:47:13;10.20;99.60
20479;DHT22;10398;52.490;13.434;2023-05-09T03:49:38;10.20;99.70
20479;DHT22;10398;52.490;13.434;2023-05-09T03:52:04;10.30;99.90
20479;DHT22;10398;52.490;13.434;2023-05-09T03:54:30;10.20;99.80
20479;DHT22;10398;52.490;13.434;2023-05-09T03:56:55;10.30;99.80
20479;DHT22;10398;52.490;13.434;2023-05-09T03:59:21;10.20;99.90
20479;DHT22;10398;52.490;13.434;2023-05-09T04:01:46;10.20;99.90
20479;DHT22;10398;52.490;13.434;2023-05-09T04:04:12;10.30;99.90
20479;DHT22;10398;52.490;13.434;2023-05-09T04:06:38;10.20;99.90
20479;DHT22;10398;52.490;13.434;2023-05-09T04:09:03;10.20;99.90
20479;DHT22;10398;52.490;13.434;2023-05-09T04:11:29;10.20;99.90
20479;DHT22;10398;52.490;13.434;2023-05-09T04:13:54;10.30;99.90
20479;DHT22;10398;52.490;13.434;2023-05-09T04:16:20;10.20;99.90
20479;DHT22;10398;52.490;13.434;2023-05-09T04:18:46;10.30;99.90
20479;DHT22;10398;52.490;13.434;2023-05-09T04:21:11;10.30;99.90
20479;DHT22;10398;52.490;13.434;2023-05-09T04:23:37;10.30;99.90
20479;DHT22;10398;52.490;13.434;2023-05-09T04:26:06;10.30;99.90
20479;DHT22;10398;52.490;13.434;2023-05-09T04:28:34;10.20;99.90
20479;DHT22;10398;52.490;13.434;2023-05-09T04:30:59;10.20;99.90
20479;DHT22;10398;52.490;13.434;2023-05-09T04:33:25;10.10;99.90
20479;DHT22;10398;52.490;13.434;2023-05-09T04:35:50;10.20;99.90
20479;DHT22;10398;52.490;13.434;2023-05-09T04:38:16;10.10;99.90
20479;DHT22;10398;52.490;13.434;2023-05-09T04:40:42;10.10;99.90
20479;DHT22;10398;52.490;13.434;2023-05-09T04:43:07;10.20;99.90
20479;DHT22;10398;52.490;13.434;2023-05-09T04:45:33;10.30;99.90
20479;DHT22;10398;52.490;13.434;2023-05-09T04:47:59;10.30;99.90
20479;DHT22;10398;52.490;13.434;2023-05-09T04:50:25;10.30;99.90
20479;DHT22;10398;52.490;13.434;2023-05-09T04:52:50;10.30;99.90
20479;DHT22;10398;52.490;13.434;2023-05-09T04:55:16;10.30;99.90
20479;DHT22;10398;52.490;13.434;2023-05-09T04:57:42;10.20;99.90
20479;DHT22;10398;52.490;13.434;2023-05-09T05:00:07;10.30;99.90
20479;DHT22;10398;52.490;13.434;2023-05-09T05:02:35;10.30;99.90
20479;DHT22;10398;52.490;13.434;2023-05-09T05:05:01;10.20;99.90
20479;DHT22;10398;52.490;13.434;2023-05-09T05:07:26;10.30;99.90
20479;DHT22;10398;52.490;13.434;2023-05-09T05:09:52;10.40;99.90
20479;DHT22;10398;52.490;13.434;2023-05-09T05:12:18;10.40;99.90
20479;DHT22;10398;52.490;13.434;2023-05-09T05:14:43;10.30;99.90
20479;DHT22;10398;52.490;13.434;2023-05-09T05:17:09;10.40;99.90
20479;DHT22;10398;52.490;13.434;2023-05-09T05:19:35;10.40;99.90
20479;DHT22;10398;52.490;13.434;2023-05-09T05:22:00;10.40;99.90
20479;DHT22;10398;52.490;13.434;2023-05-09T05:24:26;10.50;99.90
20479;DHT22;10398;52.490;13.434;2023-05-09T05:26:52;10.50;99.90
20479;DHT22;10398;52.490;13.434;2023-05-09T05:29:18;10.50;99.90
20479;DHT22;10398;52.490;13.434;2023-05-09T05:31:44;10.50;99.90
20479;DHT22;10398;52.490;13.434;2023-05-09T05:34:11;10.50;99.90
20479;DHT22;10398;52.490;13.434;2023-05-09T05:36:37;10.60;99.90
20479;DHT22;10398;52.490;13.434;2023-05-09T05:39:03;10.70;99.90
20479;DHT22;10398;52.490;13.434;2023-05-09T05:41:28;10.80;99.90
20479;DHT22;10398;52.490;13.434;2023-05-09T05:43:54;10.90;99.90
20479;DHT22;10398;52.490;13.434;2023-05-09T05:46:20;10.90;99.90
20479;DHT22;10398;52.490;13.434;2023-05-09T05:48:45;11.00;99.90
20479;DHT22;10398;52.490;13.434;2023-05-09T05:51:11;11.10;99.90
20479;DHT22;10398;52.490;13.434;2023-05-09T05:53:37;11.20;99.90
20479;DHT22;10398;52.490;13.434;2023-05-09T05:56:02;11.20;99.80
20479;DHT22;10398;52.490;13.434;2023-05-09T05:58:28;11.30;99.80
20479;DHT22;10398;52.490;13.434;2023-05-09T06:00:54;11.30;99.30
20479;DHT22;10398;52.490;13.434;2023-05-09T06:03:19;11.30;99.10
20479;DHT22;10398;52.490;13.434;2023-05-09T06:05:46;11.20;99.20
20479;DHT22;10398;52.490;13.434;2023-05-09T06:08:12;11.30;99.20
20479;DHT22;10398;52.490;13.434;2023-05-09T06:10:38;11.30;99.40
20479;DHT22;10398;52.490;13.434;2023-05-09T06:13:03;11.50;99.90
20479;DHT22;10398;52.490;13.434;2023-05-09T06:15:29;11.50;99.30
20479;DHT22;10398;52.490;13.434;2023-05-09T06:17:54;11.60;99.30
20479;DHT22;10398;52.490;13.434;2023-05-09T06:20:20;11.70;99.30
20479;DHT22;10398;52.490;13.434;2023-05-09T06:22:46;11.70;99.20
20479;DHT22;10398;52.490;13.434;2023-05-09T06:25:11;11.80;98.80
20479;DHT22;10398;52.490;13.434;2023-05-09T06:27:37;11.80;98.60
20479;DHT22;10398;52.490;13.434;2023-05-09T06:30:03;11.80;98.80
20479;DHT22;10398;52.490;13.434;2023-05-09T06:32:29;11.90;98.40
20479;DHT22;10398;52.490;13.434;2023-05-09T06:34:55;11.90;98.40
20479;DHT22;10398;52.490;13.434;2023-05-09T06:37:20;12.00;98.40
20479;DHT22;10398;52.490;13.434;2023-05-09T06:39:46;11.90;98.50
20479;DHT22;10398;52.490;13.434;2023-05-09T06:42:12;12.00;98.40
20479;DHT22;10398;52.490;13.434;2023-05-09T06:44:37;12.00;98.50
20479;DHT22;10398;52.490;13.434;2023-05-09T06:47:03;12.10;98.20
20479;DHT22;10398;52.490;13.434;2023-05-09T06:49:28;12.10;98.20
20479;DHT22;10398;52.490;13.434;2023-05-09T06:51:54;12.20;98.20
20479;DHT22;10398;52.490;13.434;2023-05-09T06:54:20;12.30;98.20
20479;DHT22;10398;52.490;13.434;2023-05-09T06:56:45;12.50;98.00
20479;DHT22;10398;52.490;13.434;2023-05-09T06:59:11;12.50;97.70
20479;DHT22;10398;52.490;13.434;2023-05-09T07:01:38;12.60;97.60
20479;DHT22;10398;52.490;13.434;2023-05-09T07:04:04;12.60;97.50
20479;DHT22;10398;52.490;13.434;2023-05-09T07:06:30;12.60;97.10
20479;DHT22;10398;52.490;13.434;2023-05-09T07:08:56;12.60;97.00
20479;DHT22;10398;52.490;13.434;2023-05-09T07:11:21;12.60;96.80
20479;DHT22;10398;52.490;13.434;2023-05-09T07:13:47;12.50;96.50
20479;DHT22;10398;52.490;13.434;2023-05-09T07:16:13;12.60;96.80
20479;DHT22;10398;52.490;13.434;2023-05-09T07:18:38;12.70;96.80
20479;DHT22;10398;52.490;13.434;2023-05-09T07:21:05;12.70;96.20
20479;DHT22;10398;52.490;13.434;2023-05-09T07:23:30;12.70;96.70
20479;DHT22;10398;52.490;13.434;2023-05-09T07:25:57;12.90;96.80
20479;DHT22;10398;52.490;13.434;2023-05-09T07:28:23;13.00;96.30
20479;DHT22;10398;52.490;13.434;2023-05-09T07:30:49;13.10;96.00
20479;DHT22;10398;52.490;13.434;2023-05-09T07:33:15;13.20;95.30
20479;DHT22;10398;52.490;13.434;2023-05-09T07:35:40;13.20;94.50
20479;DHT22;10398;52.490;13.434;2023-05-09T07:38:06;13.20;94.30
20479;DHT22;10398;52.490;13.434;2023-05-09T07:40:32;13.10;94.00
20479;DHT22;10398;52.490;13.434;2023-05-09T07:43:01;13.00;94.60
20479;DHT22;10398;52.490;13.434;2023-05-09T07:45:27;13.10;94.70
20479;DHT22;10398;52.490;13.434;2023-05-09T07:47:53;13.20;95.00
20479;DHT22;10398;52.490;13.434;2023-05-09T07:50:20;13.40;95.30
20479;DHT22;10398;52.490;13.434;2023-05-09T07:52:47;13.50;94.50
20479;DHT22;10398;52.490;13.434;2023-05-09T07:55:13;13.50;94.20
20479;DHT22;10398;52.490;13.434;2023-05-09T07:57:39;13.80;94.30
20479;DHT22;10398;52.490;13.434;2023-05-09T08:00:06;13.80;94.10
20479;DHT22;10398;52.490;13.434;2023-05-09T08:02:32;13.90;93.10
20479;DHT22;10398;52.490;13.434;2023-05-09T08:04:57;14.00;93.00
20479;DHT22;10398;52.490;13.434;2023-05-09T08:07:23;14.10;92.90
20479;DHT22;10398;52.490;13.434;2023-05-09T08:09:48;14.30;93.60
20479;DHT22;10398;52.490;13.434;2023-05-09T08:12:14;14.50;93.00
20479;DHT22;10398;52.490;13.434;2023-05-09T08:14:40;14.60;92.60
20479;DHT22;10398;52.490;13.434;2023-05-09T08:17:05;14.80;92.60
20479;DHT22;10398;52.490;13.434;2023-05-09T08:19:31;14.80;91.80
20479;DHT22;10398;52.490;13.434;2023-05-09T08:21:57;14.70;91.40
20479;DHT22;10398;52.490;13.434;2023-05-09T08:24:22;14.70;91.80
20479;DHT22;10398;52.490;13.434;2023-05-09T08:26:48;14.90;92.20
20479;DHT22;10398;52.490;13.434;2023-05-09T08:29:14;15.00;91.90
20479;DHT22;10398;52.490;13.434;2023-05-09T08:31:40;15.20;91.40
20479;DHT22;10398;52.490;13.434;2023-05-09T08:34:06;15.20;90.60
20479;DHT22;10398;52.490;13.434;2023-05-09T08:36:32;15.10;90.20
20479;DHT22;10398;52.490;13.434;2023-05-09T08:38:58;14.90;90.30
20479;DHT22;10398;52.490;13.434;2023-05-09T08:41:24;15.00;90.30
20479;DHT22;10398;52.490;13.434;2023-05-09T08:43:53;15.10;89.80
20479;DHT22;10398;52.490;13.434;2023-05-09T08:46:26;15.10;89.60
20479;DHT22;10398;52.490;13.434;2023-05-09T08:48:52;15.20;88.70
20479;DHT22;10398;52.490;13.434;2023-05-09T08:51:18;15.30;89.90
20479;DHT22;10398;52.490;13.434;2023-05-09T08:53:44;15.40;90.20
20479;DHT22;10398;52.490;13.434;2023-05-09T08:56:10;15.50;90.20
20479;DHT22;10398;52.490;13.434;2023-05-09T08:58:36;15.50;90.60
20479;DHT22;10398;52.490;13.434;2023-05-09T09:01:03;15.70;91.00
20479;DHT22;10398;52.490;13.434;2023-05-09T09:03:32;15.70;90.10
20479;DHT22;10398;52.490;13.434;2023-05-09T09:05:58;15.70;90.10
20479;DHT22;10398;52.490;13.434;2023-05-09T09:08:26;15.80;90.00
20479;DHT22;10398;52.490;13.434;2023-05-09T09:10:53;15.90;88.50
20479;DHT22;10398;52.490;13.434;2023-05-09T09:13:19;16.00;89.60
20479;DHT22;10398;52.490;13.434;2023-05-09T09:15:45;16.00;88.80
20479;DHT22;10398;52.490;13.434;2023-05-09T09:18:27;16.10;89.90
20479;DHT22;10398;52.490;13.434;2023-05-09T09:21:00;16.20;88.00
20479;DHT22;10398;52.490;13.434;2023-05-09T09:23:31;16.30;88.20
20479;DHT22;10398;52.490;13.434;2023-05-09T09:25:58;16.40;88.10
20479;DHT22;10398;52.490;13.434;2023-05-09T09:28:24;16.30;86.30
20479;DHT22;10398;52.490;13.434;2023-05-09T09:30:50;16.40;86.10
20479;DHT22;10398;52.490;13.434;2023-05-09T09:33:22;16.40;84.90
20479;DHT22;10398;52.490;13.434;2023-05-09T09:35:52;16.50;84.80
20479;DHT22;10398;52.490;13.434;2023-05-09T09:38:19;16.50;84.10
20479;DHT22;10398;52.490;13.434;2023-05-09T09:41:02;16.70;84.90
20479;DHT22;10398;52.490;13.434;2023-05-09T09:43:31;16.80;84.90
20479;DHT22;10398;52.490;13.434;2023-05-09T09:46:04;16.80;82.80
20479;DHT22;10398;52.490;13.434;2023-05-09T09:48:34;16.90;81.10
20479;DHT22;10398;52.490;13.434;2023-05-09T09:51:18;17.00;83.10
20479;DHT22;10398;52.490;13.434;2023-05-09T09:53:44;17.10;82.30
20479;DHT22;10398;52.490;13.434;2023-05-09T09:56:11;17.20;82.60
20479;DHT22;10398;52.490;13.434;2023-05-09T09:58:36;17.30;82.70
20479;DHT22;10398;52.490;13.434;2023-05-09T10:03:36;17.40;80.00
20479;DHT22;10398;52.490;13.434;2023-05-09T10:06:01;17.40;80.50
20479;DHT22;10398;52.490;13.434;2023-05-09T10:08:27;17.30;79.10
20479;DHT22;10398;52.490;13.434;2023-05-09T10:10:53;17.20;78.70
20479;DHT22;10398;52.490;13.434;2023-05-09T10:13:19;17.20;78.50
20479;DHT22;10398;52.490;13.434;2023-05-09T10:15:45;17.40;80.30
20479;DHT22;10398;52.490;13.434;2023-05-09T10:18:12;17.50;78.10
20479;DHT22;10398;52.490;13.434;2023-05-09T10:20:43;17.50;78.60
20479;DHT22;10398;52.490;13.434;2023-05-09T10:23:08;17.50;79.10
20479;DHT22;10398;52.490;13.434;2023-05-09T10:25:46;17.60;78.70
20479;DHT22;10398;52.490;13.434;2023-05-09T10:28:14;17.50;78.80
20479;DHT22;10398;52.490;13.434;2023-05-09T10:31:04;17.60;79.50
20479;DHT22;10398;52.490;13.434;2023-05-09T10:33:39;17.70;78.70
20479;DHT22;10398;52.490;13.434;2023-05-09T10:36:07;17.80;77.10
20479;DHT22;10398;52.490;13.434;2023-05-09T10:38:33;17.90;77.00
20479;DHT22;10398;52.490;13.434;2023-05-09T10:41:00;17.90;78.00
20479;DHT22;10398;52.490;13.434;2023-05-09T10:43:26;18.00;77.20
20479;DHT22;10398;52.490;13.434;2023-05-09T10:45:53;18.10;75.60
20479;DHT22;10398;52.490;13.434;2023-05-09T10:48:20;18.20;75.70
20479;DHT22;10398;52.490;13.434;2023-05-09T10:50:47;18.20;75.10
20479;DHT22;10398;52.490;13.434;2023-05-09T10:53:13;18.40;76.40
20479;DHT22;10398;52.490;13.434;2023-05-09T10:55:53;18.50;76.20
20479;DHT22;10398;52.490;13.434;2023-05-09T10:58:30;18.40;76.20
20479;DHT22;10398;52.490;13.434;2023-05-09T11:00:59;18.60;74.70
20479;DHT22;10398;52.490;13.434;2023-05-09T11:03:26;18.70;75.50
20479;DHT22;10398;52.490;13.434;2023-05-09T11:05:54;18.80;74.80
20479;DHT22;10398;52.490;13.434;2023-05-09T11:08:25;18.90;74.30
20479;DHT22;10398;52.490;13.434;2023-05-09T11:10:55;18.90;73.50
20479;DHT22;10398;52.490;13.434;2023-05-09T11:13:23;18.80;73.20
20479;DHT22;10398;52.490;13.434;2023-05-09T11:18:18;19.00;74.40
20479;DHT22;10398;52.490;13.434;2023-05-09T11:20:47;18.70;73.50
20479;DHT22;10398;52.490;13.434;2023-05-09T11:23:15;18.80;73.80
20479;DHT22;10398;52.490;13.434;2023-05-09T11:25:45;18.80;72.60
20479;DHT22;10398;52.490;13.434;2023-05-09T11:28:58;18.70;73.40
20479;DHT22;10398;52.490;13.434;2023-05-09T11:31:17;18.80;73.00
20479;DHT22;10398;52.490;13.434;2023-05-09T11:33:46;18.90;72.80
20479;DHT22;10398;52.490;13.434;2023-05-09T11:39:09;19.00;73.60
20479;DHT22;10398;52.490;13.434;2023-05-09T11:41:45;19.20;73.40
20479;DHT22;10398;52.490;13.434;2023-05-09T11:46:42;19.20;72.10
20479;DHT22;10398;52.490;13.434;2023-05-09T11:49:07;19.20;71.90
20479;DHT22;10398;52.490;13.434;2023-05-09T11:51:35;19.40;71.40
20479;DHT22;10398;52.490;13.434;2023-05-09T11:54:03;19.50;72.40
20479;DHT22;10398;52.490;13.434;2023-05-09T11:56:30;19.50;70.80
20479;DHT22;10398;52.490;13.434;2023-05-09T11:58:56;19.60;70.10
20479;DHT22;10398;52.490;13.434;2023-05-09T12:01:22;19.60;70.50
20479;DHT22;10398;52.490;13.434;2023-05-09T12:03:49;19.80;69.10
20479;DHT22;10398;52.490;13.434;2023-05-09T12:06:18;19.70;69.20
20479;DHT22;10398;52.490;13.434;2023-05-09T12:08:44;19.80;68.50
20479;DHT22;10398;52.490;13.434;2023-05-09T12:11:11;19.90;69.10
20479;DHT22;10398;52.490;13.434;2023-05-09T12:13:51;20.00;69.20
20479;DHT22;10398;52.490;13.434;2023-05-09T12:16:18;20.10;69.40
20479;DHT22;10398;52.490;13.434;2023-05-09T12:18:48;20.00;69.30
20479;DHT22;10398;52.490;13.434;2023-05-09T12:21:15;19.90;70.00
20479;DHT22;10398;52.490;13.434;2023-05-09T12:23:41;19.90;69.40
20479;DHT22;10398;52.490;13.434;2023-05-09T12:26:07;19.90;68.60
20479;DHT22;10398;52.490;13.434;2023-05-09T12:28:33;20.00;69.00
20479;DHT22;10398;52.490;13.434;2023-05-09T12:31:00;20.10;69.30
20479;DHT22;10398;52.490;13.434;2023-05-09T12:33:27;20.20;68.70
20479;DHT22;10398;52.490;13.434;2023-05-09T12:36:11;20.30;69.80
20479;DHT22;10398;52.490;13.434;2023-05-09T12:38:37;20.20;69.20
20479;DHT22;10398;52.490;13.434;2023-05-09T12:41:08;20.20;69.60
20479;DHT22;10398;52.490;13.434;2023-05-09T12:43:35;20.30;69.70
20479;DHT22;10398;52.490;13.434;2023-05-09T12:46:02;20.20;68.80
20479;DHT22;10398;52.490;13.434;2023-05-09T12:48:29;20.30;68.80
20479;DHT22;10398;52.490;13.434;2023-05-09T12:51:05;20.20;68.90
20479;DHT22;10398;52.490;13.434;2023-05-09T12:53:39;20.30;71.00
20479;DHT22;10398;52.490;13.434;2023-05-09T12:56:23;20.40;69.40
20479;DHT22;10398;52.490;13.434;2023-05-09T12:58:50;20.40;68.20
20479;DHT22;10398;52.490;13.434;2023-05-09T13:01:18;20.30;67.60
20479;DHT22;10398;52.490;13.434;2023-05-09T13:03:43;20.30;67.50
20479;DHT22;10398;52.490;13.434;2023-05-09T13:06:13;20.20;67.70
20479;DHT22;10398;52.490;13.434;2023-05-09T13:08:39;20.30;67.40
20479;DHT22;10398;52.490;13.434;2023-05-09T13:11:08;20.20;67.00
20479;DHT22;10398;52.490;13.434;2023-05-09T13:13:34;20.00;66.80
20479;DHT22;10398;52.490;13.434;2023-05-09T13:16:02;20.20;66.60
20479;DHT22;10398;52.490;13.434;2023-05-09T13:18:28;20.10;67.50
20479;DHT22;10398;52.490;13.434;2023-05-09T13:20:54;20.20;67.50
20479;DHT22;10398;52.490;13.434;2023-05-09T13:23:19;20.10;66.10
20479;DHT22;10398;52.490;13.434;2023-05-09T13:25:46;20.30;67.10
20479;DHT22;10398;52.490;13.434;2023-05-09T13:28:12;20.30;66.20
20479;DHT22;10398;52.490;13.434;2023-05-09T13:30:37;20.50;67.30
20479;DHT22;10398;52.490;13.434;2023-05-09T13:33:03;20.60;65.80
20479;DHT22;10398;52.490;13.434;2023-05-09T13:35:29;20.60;66.10
20479;DHT22;10398;52.490;13.434;2023-05-09T13:37:55;20.80;65.70
20479;DHT22;10398;52.490;13.434;2023-05-09T13:40:22;20.90;65.40
20479;DHT22;10398;52.490;13.434;2023-05-09T13:42:48;21.00;65.40
20479;DHT22;10398;52.490;13.434;2023-05-09T13:45:13;21.10;65.80
20479;DHT22;10398;52.490;13.434;2023-05-09T13:47:39;21.10;66.10
20479;DHT22;10398;52.490;13.434;2023-05-09T13:50:06;21.10;66.10
20479;DHT22;10398;52.490;13.434;2023-05-09T13:52:32;21.20;65.70
20479;DHT22;10398;52.490;13.434;2023-05-09T13:54:58;21.30;65.80
20479;DHT22;10398;52.490;13.434;2023-05-09T13:57:24;21.30;64.90
20479;DHT22;10398;52.490;13.434;2023-05-09T13:59:50;21.30;64.60
20479;DHT22;10398;52.490;13.434;2023-05-09T14:02:15;21.40;64.50
20479;DHT22;10398;52.490;13.434;2023-05-09T14:04:41;21.40;65.00
20479;DHT22;10398;52.490;13.434;2023-05-09T14:07:07;21.50;63.90
20479;DHT22;10398;52.490;13.434;2023-05-09T14:09:35;21.50;63.40
20479;DHT22;10398;52.490;13.434;2023-05-09T14:12:04;21.50;63.80
20479;DHT22;10398;52.490;13.434;2023-05-09T14:14:30;21.50;63.60
20479;DHT22;10398;52.490;13.434;2023-05-09T14:16:56;21.40;63.30
20479;DHT22;10398;52.490;13.434;2023-05-09T14:19:23;21.50;63.20
20479;DHT22;10398;52.490;13.434;2023-05-09T14:21:49;21.40;62.50
20479;DHT22;10398;52.490;13.434;2023-05-09T14:24:15;21.30;62.10
20479;DHT22;10398;52.490;13.434;2023-05-09T14:26:40;21.20;62.30
20479;DHT22;10398;52.490;13.434;2023-05-09T14:29:06;21.20;63.00
20479;DHT22;10398;52.490;13.434;2023-05-09T14:31:32;21.10;63.70
20479;DHT22;10398;52.490;13.434;2023-05-09T14:33:58;21.20;64.20
20479;DHT22;10398;52.490;13.434;2023-05-09T14:36:27;21.30;64.20
20479;DHT22;10398;52.490;13.434;2023-05-09T14:38:53;21.50;64.20
20479;DHT22;10398;52.490;13.434;2023-05-09T14:41:19;21.50;63.40
20479;DHT22;10398;52.490;13.434;2023-05-09T14:43:44;21.60;62.30
20479;DHT22;10398;52.490;13.434;2023-05-09T14:46:10;21.50;62.30
20479;DHT22;10398;52.490;13.434;2023-05-09T14:48:36;21.40;62.90
20479;DHT22;10398;52.490;13.434;2023-05-09T14:51:01;21.40;63.20
20479;DHT22;10398;52.490;13.434;2023-05-09T14:53:28;21.30;62.80
20479;DHT22;10398;52.490;13.434;2023-05-09T14:55:54;21.30;63.00
20479;DHT22;10398;52.490;13.434;2023-05-09T14:58:21;21.40;62.90
20479;DHT22;10398;52.490;13.434;2023-05-09T15:00:47;21.20;62.50
20479;DHT22;10398;52.490;13.434;2023-05-09T15:03:13;21.30;62.70
20479;DHT22;10398;52.490;13.434;2023-05-09T15:05:40;21.30;63.30
20479;DHT22;10398;52.490;13.434;2023-05-09T15:08:06;21.30;61.80
20479;DHT22;10398;52.490;13.434;2023-05-09T15:10:31;21.20;62.30
20479;DHT22;10398;52.490;13.434;2023-05-09T15:12:58;21.30;62.80
20479;DHT22;10398;52.490;13.434;2023-05-09T15:15:24;21.30;63.20
20479;DHT22;10398;52.490;13.434;2023-05-09T15:17:50;21.20;62.80
20479;DHT22;10398;52.490;13.434;2023-05-09T15:20:16;21.30;62.80
20479;DHT22;10398;52.490;13.434;2023-05-09T15:22:43;21.10;61.60
20479;DHT22;10398;52.490;13.434;2023-05-09T15:25:09;20.90;62.10
20479;DHT22;10398;52.490;13.434;2023-05-09T15:27:35;20.90;62.70
20479;DHT22;10398;52.490;13.434;2023-05-09T15:30:02;20.90;63.20
20479;DHT22;10398;52.490;13.434;2023-05-09T15:32:28;20.80;62.20
20479;DHT22;10398;52.490;13.434;2023-05-09T15:34:53;20.70;62.30